Time;durP1;ratioP1;P1;durP2;ratioP2;P2;SDS_P1;SDS_P2;PMS_P1;PMS_P2;Temp;Humidity;BMP_temperature;BMP_pressure;BME280_temperature;BME280_humidity;BME280_pressure;Samples;Min_cycle;Max_cycle;Signal;HPM_P1;HPM_P2
2022/01/01 00:01:55;;;;;;;58.43;23.87;;;10.20;99.90;;;;;;4972377;28;20134;-66
2022/01/01 00:04:20;;;;;;;54.47;22.53;;;10.20;99.90;;;;;;4993086;28;20052;-66
2022/01/01 00:06:46;;;;;;;57.10;22.60;;;10.20;99.90;;;;;;4965493;28;20041;-66
2022/01/01 00:09:11;;;;;;;60.03;23.40;;;10.20;99.90;;;;;;4987736;28;20575;-66
2022/01/01 00:11:37;;;;;;;55.43;24.03;;;10.10;99.90;;;;;;4988902;28;20478;-66
2022/01/01 00:14:02;;;;;;;59.40;22.47;;;10.10;99.90;;;;;;4973415;28;20046;-67
2022/01/01 00:16:29;;;;;;;64.20;25.30;;;10.00;99.90;;;;;;4986571;28;20054;-66
2022/01/01 00:18:57;;;;;;;65.22;24.40;;;10.00;99.90;;;;;;4988394;28;20034;-66
2022/01/01 00:21:23;;;;;;;55.20;23.20;;;10.10;99.90;;;;;;4972286;28;20534;-66
2022/01/01 00:23:49;;;;;;;59.00;25.57;;;10.00;99.90;;;;;;4988829;28;20301;-67
2022/01/01 00:26:14;;;;;;;61.90;26.80;;;10.00;99.90;;;;;;4989509;28;20483;-66
2022/01/01 00:28:40;;;;;;;66.30;25.80;;;10.00;99.90;;;;;;4968299;28;20038;-66
2022/01/01 00:31:07;;;;;;;69.45;24.35;;;10.00;99.90;;;;;;4992159;28;20364;-67
2022/01/01 00:33:32;;;;;;;;;;;10.00;99.90;;;;;;4986522;28;20049;-66
2022/01/01 00:35:58;;;;;;;63.75;24.10;;;10.00;99.90;;;;;;4985951;28;20348;-66
2022/01/01 00:38:24;;;;;;;62.93;25.20;;;10.00;99.90;;;;;;4969418;28;20039;-66
2022/01/01 00:40:51;;;;;;;56.38;23.75;;;10.00;99.90;;;;;;4982842;28;20464;-66
2022/01/01 00:43:16;;;;;;;53.70;18.75;;;10.00;99.90;;;;;;4988051;28;20038;-66
2022/01/01 00:45:42;;;;;;;48.13;20.10;;;10.00;99.90;;;;;;4991449;28;20107;-66
2022/01/01 00:48:07;;;;;;;62.37;22.47;;;10.00;99.90;;;;;;4983292;28;20039;-66
2022/01/01 00:50:33;;;;;;;54.20;19.07;;;10.00;99.90;;;;;;4993975;28;20038;-67
2022/01/01 00:53:02;;;;;;;60.00;20.02;;;10.00;99.90;;;;;;4988022;28;20117;-66
2022/01/01 00:55:28;;;;;;;54.33;19.20;;;10.00;99.90;;;;;;4991862;28;20038;-66
2022/01/01 00:57:53;;;;;;;51.60;20.50;;;10.00;99.90;;;;;;4987900;28;20039;-66
2022/01/01 01:00:19;;;;;;;58.80;20.40;;;9.90;99.90;;;;;;4990366;28;20038;-66
2022/01/01 01:02:48;;;;;;;42.60;17.53;;;9.90;99.90;;;;;;4980697;28;20137;-66
2022/01/01 01:05:13;;;;;;;60.20;18.20;;;9.90;99.90;;;;;;4986101;28;20201;-66
2022/01/01 01:07:39;;;;;;;49.97;17.33;;;9.90;99.90;;;;;;4986943;28;20053;-66
2022/01/01 01:10:05;;;;;;;53.43;16.00;;;9.80;99.90;;;;;;4970791;28;20053;-66
2022/01/01 01:12:47;;;;;;;50.50;15.18;;;9.90;99.90;;;;;;4985399;28;20046;-66
2022/01/01 01:15:17;;;;;;;44.25;13.13;;;9.90;99.90;;;;;;4985304;28;20089;-66
2022/01/01 01:17:47;;;;;;;50.38;14.38;;;9.80;99.90;;;;;;4990922;28;20125;-66
2022/01/01 01:20:14;;;;;;;41.35;14.00;;;9.80;99.90;;;;;;4972789;28;20043;-66
2022/01/01 01:22:40;;;;;;;44.65;15.07;;;9.80;99.90;;;;;;4988263;28;20038;-66
2022/01/01 01:25:06;;;;;;;50.20;15.00;;;9.70;99.90;;;;;;4985305;28;20045;-66
2022/01/01 01:27:34;;;;;;;51.75;15.55;;;9.70;99.90;;;;;;4969857;28;20503;-66
2022/01/01 01:30:00;;;;;;;44.33;15.60;;;9.70;99.90;;;;;;4980513;28;20096;-66
2022/01/01 01:32:26;;;;;;;44.60;16.30;;;9.70;99.90;;;;;;4984682;28;20396;-66
2022/01/01 01:34:51;;;;;;;57.23;18.00;;;9.70;99.90;;;;;;4987212;28;20045;-66
2022/01/01 01:37:17;;;;;;;51.47;18.13;;;9.70;99.90;;;;;;4971006;28;20297;-66
2022/01/01 01:39:45;;;;;;;63.10;21.23;;;9.60;99.90;;;;;;4973474;28;20606;-66
2022/01/01 01:42:10;;;;;;;66.20;23.05;;;9.60;99.90;;;;;;4984327;28;20042;-67
2022/01/01 01:44:43;;;;;;;64.18;25.38;;;9.60;99.90;;;;;;4990210;28;20038;-66
2022/01/01 01:47:15;;;;;;;77.10;30.10;;;9.60;99.90;;;;;;4988394;28;20074;-66
2022/01/01 01:49:45;;;;;;;83.30;32.00;;;9.60;99.90;;;;;;4987405;28;20045;-66
2022/01/01 01:52:12;;;;;;;88.20;33.70;;;9.50;99.90;;;;;;4990755;28;20052;-66
2022/01/01 01:54:39;;;;;;;91.28;35.60;;;9.60;99.90;;;;;;4972063;28;20042;-66
2022/01/01 01:57:05;;;;;;;86.05;35.65;;;9.50;99.90;;;;;;4989731;28;20074;-66
2022/01/01 01:59:30;;;;;;;85.83;34.80;;;9.60;99.90;;;;;;4988541;28;20068;-67
2022/01/01 02:01:56;;;;;;;80.23;33.63;;;9.60;99.90;;;;;;4970981;28;20046;-66
2022/01/01 02:04:22;;;;;;;86.63;31.80;;;9.60;99.90;;;;;;4994976;28;20093;-66
2022/01/01 02:06:48;;;;;;;82.50;31.27;;;9.60;99.90;;;;;;4991787;28;20121;-66
2022/01/01 02:09:14;;;;;;;71.68;29.17;;;9.60;99.90;;;;;;4986913;28;20089;-66
2022/01/01 02:11:41;;;;;;;82.60;28.77;;;9.60;99.90;;;;;;4954695;28;20070;-66
2022/01/01 02:19:25;;;;;;;58.17;21.45;;;9.60;99.90;;;;;;4998284;28;20407;-66
2022/01/01 02:21:57;;;;;;;69.22;23.10;;;9.60;99.90;;;;;;4990212;28;20050;-66
2022/01/01 02:24:23;;;;;;;61.13;22.00;;;9.60;99.90;;;;;;4972975;28;20038;-66
2022/01/01 02:26:49;;;;;;;68.53;21.65;;;9.60;99.90;;;;;;4970225;28;20057;-66
2022/01/01 02:29:14;;;;;;;64.87;22.73;;;9.60;99.90;;;;;;5000150;28;20341;-66
2022/01/01 02:31:40;;;;;;;60.83;23.23;;;9.60;99.90;;;;;;4993532;28;20368;-67
2022/01/01 02:34:07;;;;;;;74.77;27.17;;;9.60;99.90;;;;;;4979653;28;20046;-66
2022/01/01 02:36:41;;;;;;;90.60;27.50;;;9.60;99.90;;;;;;4988172;28;20364;-66
2022/01/01 02:39:10;;;;;;;75.22;27.88;;;9.50;99.90;;;;;;4981851;28;20105;-66
2022/01/01 02:41:36;;;;;;;78.97;29.90;;;9.60;99.90;;;;;;4989320;28;20117;-66
2022/01/01 02:44:01;;;;;;;91.23;32.13;;;9.60;99.90;;;;;;4992840;28;20038;-66
2022/01/01 02:46:27;;;;;;;79.80;31.20;;;9.60;99.90;;;;;;4992564;28;20041;-66
2022/01/01 02:48:52;;;;;;;83.80;30.00;;;9.60;99.90;;;;;;4982956;28;20035;-66
2022/01/01 02:51:18;;;;;;;95.57;32.63;;;9.50;99.90;;;;;;4990512;28;20440;-66
2022/01/01 02:53:44;;;;;;;76.57;31.70;;;9.60;99.90;;;;;;4965876;28;20074;-66
2022/01/01 02:56:10;;;;;;;77.63;28.97;;;9.70;99.90;;;;;;4970886;28;20136;-67
2022/01/01 02:58:35;;;;;;;85.10;30.98;;;9.60;99.90;;;;;;4990277;28;20030;-66
2022/01/01 03:01:01;;;;;;;76.40;29.60;;;9.70;99.90;;;;;;4985675;28;20037;-68
2022/01/01 03:03:26;;;;;;;84.17;28.97;;;9.70;99.90;;;;;;4965579;28;20038;-66
2022/01/01 03:05:52;;;;;;;79.27;26.43;;;9.70;99.90;;;;;;4972018;28;20101;-66
2022/01/01 03:08:17;;;;;;;71.57;25.67;;;9.70;99.90;;;;;;4991304;28;20556;-66
2022/01/01 03:10:45;;;;;;;80.37;26.30;;;9.70;99.90;;;;;;4995220;28;20045;-66
2022/01/01 03:13:10;;;;;;;74.40;27.38;;;9.70;99.90;;;;;;4992071;28;20053;-66
2022/01/01 03:15:36;;;;;;;72.20;24.97;;;9.70;99.90;;;;;;4993565;28;20487;-66
2022/01/01 03:18:02;;;;;;;84.50;25.93;;;9.80;99.90;;;;;;4992372;28;20503;-66
2022/01/01 03:20:27;;;;;;;78.23;26.63;;;9.80;99.90;;;;;;4977410;28;20089;-65
2022/01/01 03:22:53;;;;;;;81.33;26.00;;;9.80;99.90;;;;;;4987874;28;20403;-66
2022/01/01 03:25:18;;;;;;;68.40;25.40;;;9.80;99.90;;;;;;4994364;28;20038;-66
2022/01/01 03:27:44;;;;;;;73.20;27.27;;;9.80;99.90;;;;;;4991060;28;20073;-66
2022/01/01 03:30:10;;;;;;;82.77;26.60;;;9.80;99.90;;;;;;4992930;28;20034;-67
2022/01/01 03:32:35;;;;;;;70.97;27.63;;;9.80;99.90;;;;;;4974068;28;20042;-67
2022/01/01 03:35:03;;;;;;;71.97;27.77;;;9.90;99.90;;;;;;4990810;28;20285;-66
2022/01/01 03:37:29;;;;;;;77.22;29.35;;;9.90;99.90;;;;;;4991436;28;20045;-66
2022/01/01 03:39:55;;;;;;;79.43;27.73;;;9.90;99.90;;;;;;4972884;28;20157;-66
2022/01/01 03:42:20;;;;;;;91.90;29.63;;;9.90;99.90;;;;;;4990663;28;20042;-66
2022/01/01 03:44:46;;;;;;;79.47;28.17;;;10.00;99.90;;;;;;4998149;28;20169;-66
2022/01/01 03:47:11;;;;;;;83.77;28.77;;;9.90;99.90;;;;;;4994080;28;20371;-66
2022/01/01 03:49:38;;;;;;;93.90;29.97;;;9.90;99.90;;;;;;4991288;28;20030;-66
2022/01/01 03:52:04;;;;;;;;;;;9.80;99.90;;;;;;4971290;28;20050;-66
2022/01/01 03:54:29;;;;;;;97.85;29.27;;;9.80;99.90;;;;;;4987529;28;19941;-66
2022/01/01 03:56:55;;;;;;;79.57;30.00;;;9.80;99.90;;;;;;4971334;28;20043;-66
2022/01/01 03:59:21;;;;;;;92.60;29.83;;;9.80;99.90;;;;;;4991621;28;20042;-67
2022/01/01 04:01:47;;;;;;;83.03;31.30;;;9.80;99.90;;;;;;4975573;28;20085;-66
2022/01/01 04:04:13;;;;;;;93.90;31.83;;;9.80;99.90;;;;;;4993601;28;20034;-66
2022/01/01 04:06:38;;;;;;;98.28;32.97;;;9.80;99.90;;;;;;4983771;28;20487;-66
2022/01/01 04:09:04;;;;;;;90.57;33.50;;;9.80;99.90;;;;;;4994484;28;20041;-66
2022/01/01 04:11:29;;;;;;;84.53;34.90;;;9.80;99.90;;;;;;4992150;28;20069;-66
2022/01/01 04:13:55;;;;;;;100.93;34.70;;;9.80;99.90;;;;;;4995830;28;20038;-66
2022/01/01 04:16:22;;;;;;;95.87;34.00;;;9.80;99.90;;;;;;4993577;28;20097;-66
2022/01/01 04:18:48;;;;;;;84.85;34.65;;;9.80;99.90;;;;;;4988810;28;20133;-66
2022/01/01 04:21:14;;;;;;;89.37;35.27;;;9.80;99.90;;;;;;4990171;28;20125;-65
2022/01/01 04:23:41;;;;;;;89.95;34.05;;;9.80;99.90;;;;;;4999533;28;20384;-66
2022/01/01 04:26:07;;;;;;;84.68;37.65;;;9.90;99.90;;;;;;4971591;28;20108;-66
2022/01/01 04:28:34;;;;;;;98.55;39.90;;;9.90;99.90;;;;;;4992882;28;20077;-67
2022/01/01 04:31:00;;;;;;;79.78;38.95;;;9.80;99.90;;;;;;4990043;28;20092;-66
2022/01/01 04:33:25;;;;;;;95.60;38.67;;;9.90;99.90;;;;;;4968703;28;20042;-66
2022/01/01 04:35:51;;;;;;;85.97;42.30;;;9.90;99.90;;;;;;4987335;28;20297;-66
2022/01/01 04:41:02;;;;;;;94.57;40.33;;;9.90;99.90;;;;;;4972253;28;20491;-66
2022/01/01 04:43:28;;;;;;;90.80;39.97;;;9.90;99.90;;;;;;4996519;28;20071;-66
2022/01/01 04:45:53;;;;;;;99.20;41.13;;;10.00;99.90;;;;;;4989157;28;20097;-66
2022/01/01 04:48:19;;;;;;;95.90;40.43;;;10.00;99.90;;;;;;4991975;28;20045;-66
2022/01/01 04:50:44;;;;;;;99.20;40.60;;;10.00;99.90;;;;;;4954387;28;20395;-66
2022/01/01 04:53:15;;;;;;;95.17;40.00;;;10.00;99.90;;;;;;4972154;28;20097;-66
2022/01/01 04:55:41;;;;;;;99.13;39.65;;;10.10;99.90;;;;;;4990369;28;20108;-66
2022/01/01 04:58:09;;;;;;;91.57;38.20;;;10.10;99.90;;;;;;4956156;28;20042;-67
2022/01/01 05:00:35;;;;;;;77.63;31.80;;;10.10;99.90;;;;;;4993268;28;20041;-66
2022/01/01 05:03:00;;;;;;;73.00;24.47;;;10.20;99.90;;;;;;4989664;28;20232;-66
2022/01/01 05:05:26;;;;;;;64.00;23.27;;;10.20;99.90;;;;;;4974445;28;20502;-66
2022/01/01 05:07:51;;;;;;;66.03;23.47;;;10.10;99.90;;;;;;4984558;28;20038;-66
2022/01/01 05:10:20;;;;;;;57.35;20.77;;;10.20;99.90;;;;;;4993385;28;20042;-66
2022/01/01 05:12:45;;;;;;;75.97;21.77;;;10.10;99.90;;;;;;4996282;28;20462;-66
2022/01/01 05:15:11;;;;;;;66.53;21.53;;;10.10;99.90;;;;;;4989273;28;20068;-66
2022/01/01 05:17:37;;;;;;;61.83;21.07;;;10.10;99.90;;;;;;4986028;28;20043;-66
2022/01/01 05:20:03;;;;;;;75.50;20.93;;;10.10;99.90;;;;;;4987635;28;20092;-66
2022/01/01 05:22:29;;;;;;;71.47;23.13;;;10.10;99.90;;;;;;4989421;28;20038;-66
2022/01/01 05:24:59;;;;;;;74.33;22.93;;;10.00;99.90;;;;;;4987605;28;20039;-66
2022/01/01 05:27:26;;;;;;;83.57;23.40;;;10.00;99.90;;;;;;4994161;28;20038;-66
2022/01/01 05:29:52;;;;;;;80.30;24.92;;;10.10;99.90;;;;;;4988089;28;20407;-66
2022/01/01 05:32:18;;;;;;;93.90;26.90;;;10.00;99.90;;;;;;4987911;28;20048;-66
2022/01/01 05:34:43;;;;;;;82.70;22.87;;;10.00;99.90;;;;;;4985828;28;20049;-66
2022/01/01 05:37:09;;;;;;;85.03;24.63;;;10.00;99.90;;;;;;4987198;28;20034;-66
2022/01/01 05:39:34;;;;;;;100.93;24.83;;;10.00;99.90;;;;;;4989608;28;20101;-66
2022/01/01 05:42:00;;;;;;;84.10;23.73;;;10.00;99.90;;;;;;4987367;28;20038;-66
2022/01/01 05:44:26;;;;;;;85.90;23.83;;;10.00;99.90;;;;;;4988554;28;20117;-66
2022/01/01 05:46:53;;;;;;;80.43;23.67;;;10.00;99.90;;;;;;4987272;28;20046;-66
2022/01/01 05:49:18;;;;;;;77.60;23.10;;;10.10;99.90;;;;;;4988415;28;20049;-66
2022/01/01 05:51:44;;;;;;;95.10;22.70;;;10.10;99.90;;;;;;4971721;28;20038;-66
2022/01/01 05:54:10;;;;;;;80.60;23.93;;;10.10;99.90;;;;;;4989969;28;20361;-67
2022/01/01 05:56:35;;;;;;;87.70;22.60;;;10.10;99.90;;;;;;4972577;28;20124;-67
2022/01/01 05:59:01;;;;;;;88.80;23.20;;;10.20;99.90;;;;;;4990579;28;20038;-66
2022/01/01 06:01:26;;;;;;;76.83;22.73;;;10.10;99.90;;;;;;4987766;28;20104;-66
2022/01/01 06:03:52;;;;;;;64.47;21.30;;;10.20;99.90;;;;;;4993410;28;20510;-66
2022/01/01 06:06:17;;;;;;;67.47;20.93;;;10.20;99.90;;;;;;4983423;28;20178;-66
2022/01/01 06:08:43;;;;;;;63.10;18.03;;;10.30;99.90;;;;;;4992214;28;20157;-67
2022/01/01 06:11:08;;;;;;;62.47;17.37;;;10.20;99.90;;;;;;4989552;28;20689;-66
2022/01/01 06:13:34;;;;;;;54.23;15.70;;;10.30;99.90;;;;;;4989376;28;20130;-66
2022/01/01 06:15:59;;;;;;;45.43;15.67;;;10.40;99.90;;;;;;4989410;28;20086;-66
2022/01/01 06:18:25;;;;;;;63.03;15.97;;;10.40;99.90;;;;;;4988326;28;20037;-66
2022/01/01 06:20:50;;;;;;;52.30;14.57;;;10.40;99.90;;;;;;4990234;28;20042;-66
2022/01/01 06:23:16;;;;;;;44.47;13.77;;;10.40;99.90;;;;;;4990671;28;20096;-66
2022/01/01 06:25:42;;;;;;;52.63;15.57;;;10.50;99.90;;;;;;4985359;28;20069;-66
2022/01/01 06:28:07;;;;;;;44.37;14.73;;;10.50;99.90;;;;;;4976550;28;20125;-66
2022/01/01 06:30:33;;;;;;;47.87;15.83;;;10.50;99.90;;;;;;5000975;28;20034;-66
2022/01/01 06:33:18;;;;;;;53.08;16.40;;;10.50;99.90;;;;;;4992156;28;20388;-67
2022/01/01 06:35:45;;;;;;;53.22;16.85;;;10.50;99.90;;;;;;4990388;28;20100;-66
2022/01/01 06:38:11;;;;;;;50.40;16.23;;;10.50;99.90;;;;;;4969108;28;20050;-66
2022/01/01 06:40:41;;;;;;;51.88;18.58;;;10.50;99.90;;;;;;4988387;28;20102;-66
2022/01/01 06:43:08;;;;;;;57.55;18.08;;;10.50;99.90;;;;;;4988195;28;20410;-66
2022/01/01 06:45:34;;;;;;;52.63;16.55;;;10.50;99.90;;;;;;4975542;28;20057;-66
2022/01/01 06:48:00;;;;;;;43.03;15.90;;;10.50;99.90;;;;;;4994598;28;20070;-66
2022/01/01 06:50:26;;;;;;;58.63;18.65;;;10.50;99.90;;;;;;4991323;28;20034;-66
2022/01/01 06:52:52;;;;;;;51.60;16.40;;;10.60;99.90;;;;;;4990322;28;20128;-66
2022/01/01 06:55:17;;;;;;;51.43;14.57;;;10.50;99.90;;;;;;4990827;28;20038;-66
2022/01/01 06:57:44;;;;;;;43.30;14.77;;;10.50;99.90;;;;;;4977258;28;20145;-66
2022/01/01 07:00:20;;;;;;;45.17;13.38;;;10.60;99.90;;;;;;4974375;28;20038;-67
2022/01/01 07:02:47;;;;;;;45.28;14.90;;;10.60;99.90;;;;;;4997510;28;20038;-66
2022/01/01 07:05:14;;;;;;;50.65;14.80;;;10.60;99.90;;;;;;4974106;28;20048;-66
2022/01/01 07:07:40;;;;;;;48.95;15.35;;;10.60;99.90;;;;;;4991777;28;20097;-66
2022/01/01 07:10:07;;;;;;;50.75;15.15;;;10.60;99.90;;;;;;4979405;28;20064;-67
2022/01/01 07:12:34;;;;;;;42.03;14.95;;;10.70;99.90;;;;;;4993012;28;20077;-66
2022/01/01 07:14:59;;;;;;;54.85;18.20;;;10.70;99.90;;;;;;4990798;28;20038;-67
2022/01/01 07:17:25;;;;;;;58.67;16.27;;;10.70;99.90;;;;;;4993918;28;20041;-66
2022/01/01 07:19:51;;;;;;;48.70;16.50;;;10.70;99.90;;;;;;4973689;28;20069;-66
2022/01/01 07:22:16;;;;;;;46.47;16.07;;;10.80;99.90;;;;;;4991350;28;20528;-66
2022/01/01 07:24:42;;;;;;;51.03;16.57;;;10.80;99.90;;;;;;4978196;28;20048;-66
2022/01/01 07:27:10;;;;;;;44.47;15.83;;;10.80;99.90;;;;;;4992903;28;20341;-67
2022/01/01 07:29:35;;;;;;;46.55;15.43;;;10.80;99.90;;;;;;4990899;28;20034;-66
2022/01/01 07:32:01;;;;;;;50.17;15.60;;;10.80;99.90;;;;;;4991857;28;20042;-66
2022/01/01 07:34:26;;;;;;;41.57;14.87;;;10.90;99.90;;;;;;4997453;28;20089;-66
2022/01/01 07:36:52;;;;;;;50.07;16.63;;;10.90;99.90;;;;;;4988600;28;20042;-67
2022/01/01 07:39:17;;;;;;;35.90;15.53;;;10.90;99.90;;;;;;4990412;28;20109;-66
2022/01/01 07:41:43;;;;;;;50.97;16.13;;;10.90;99.90;;;;;;4991022;28;20089;-66
2022/01/01 07:44:10;;;;;;;48.72;16.73;;;11.00;99.90;;;;;;4990624;28;20037;-66
2022/01/01 07:46:36;;;;;;;48.97;14.68;;;11.00;99.90;;;;;;4991294;28;20147;-66
2022/01/01 07:49:02;;;;;;;47.73;16.80;;;11.00;99.90;;;;;;4970088;28;20039;-66
2022/01/01 07:51:27;;;;;;;43.57;15.80;;;11.00;99.90;;;;;;4987328;28;20407;-66
2022/01/01 07:53:53;;;;;;;37.67;14.47;;;11.00;99.90;;;;;;4989085;28;20046;-66
2022/01/01 07:56:18;;;;;;;37.27;15.27;;;11.00;99.90;;;;;;4990722;28;20037;-66
2022/01/01 07:58:44;;;;;;;45.33;16.13;;;11.10;99.90;;;;;;4972567;28;20471;-66
2022/01/01 08:01:09;;;;;;;41.17;15.67;;;11.10;99.90;;;;;;4988743;28;20511;-66
2022/01/01 08:03:38;;;;;;;46.77;15.73;;;11.10;99.90;;;;;;4969689;28;20406;-67
2022/01/01 08:06:03;;;;;;;50.33;16.77;;;11.10;99.90;;;;;;4977313;28;20038;-66
2022/01/01 08:08:29;;;;;;;39.10;15.87;;;11.10;99.90;;;;;;4987831;28;20118;-66
2022/01/01 08:10:54;;;;;;;38.80;16.00;;;11.20;99.90;;;;;;4989493;28;20050;-66
2022/01/01 08:13:24;;;;;;;51.17;15.90;;;11.20;99.90;;;;;;4986587;28;20042;-66
2022/01/01 08:15:52;;;;;;;49.40;17.58;;;11.20;99.90;;;;;;4990484;28;20042;-66
2022/01/01 08:18:18;;;;;;;46.78;17.08;;;11.20;99.90;;;;;;4972972;28;20707;-66
2022/01/01 08:20:46;;;;;;;48.85;16.58;;;11.30;99.90;;;;;;4989867;28;20038;-66
2022/01/01 08:23:12;;;;;;;42.50;17.10;;;11.30;99.90;;;;;;4995435;28;20038;-66
2022/01/01 08:25:37;;;;;;;55.35;18.65;;;11.30;99.90;;;;;;4998110;28;20042;-67
2022/01/01 08:28:03;;;;;;;39.97;17.00;;;11.30;99.90;;;;;;4990198;28;20035;-66
2022/01/01 08:30:29;;;;;;;46.20;16.73;;;11.30;99.90;;;;;;4986887;28;20060;-66
2022/01/01 08:33:01;;;;;;;43.53;16.23;;;11.30;99.90;;;;;;4990286;28;20038;-66
2022/01/01 08:35:31;;;;;;;36.55;15.55;;;11.40;99.90;;;;;;4985834;28;20403;-66
2022/01/01 08:37:58;;;;;;;41.63;17.73;;;11.40;99.90;;;;;;4987176;28;20034;-66
2022/01/01 08:40:25;;;;;;;42.97;16.23;;;11.40;99.90;;;;;;4986546;28;20073;-66
2022/01/01 08:42:53;;;;;;;35.15;16.42;;;11.40;99.90;;;;;;4989286;28;20376;-66
2022/01/01 08:45:19;;;;;;;40.78;15.88;;;11.50;99.90;;;;;;4994481;28;20089;-66
2022/01/01 08:47:44;;;;;;;32.47;15.43;;;11.50;99.90;;;;;;4971797;28;20046;-66
2022/01/01 08:50:10;;;;;;;41.67;15.20;;;11.50;99.90;;;;;;4975296;28;20042;-66
2022/01/01 08:52:36;;;;;;;38.83;14.57;;;11.50;99.90;;;;;;4994859;28;20153;-66
2022/01/01 08:55:02;;;;;;;35.77;15.60;;;11.50;99.90;;;;;;4985123;28;20121;-67
2022/01/01 08:57:30;;;;;;;31.80;14.52;;;11.60;99.90;;;;;;4973788;28;20606;-66
2022/01/01 08:59:55;;;;;;;36.83;14.57;;;11.60;99.90;;;;;;4972378;28;20034;-66
2022/01/01 09:02:21;;;;;;;35.25;14.63;;;11.60;99.90;;;;;;4968598;28;20051;-67
2022/01/01 09:04:47;;;;;;;38.13;14.10;;;11.60;99.90;;;;;;4991244;28;20094;-66
2022/01/01 09:07:13;;;;;;;46.20;15.13;;;11.60;99.90;;;;;;4988139;28;20042;-66
2022/01/01 09:09:39;;;;;;;38.95;14.60;;;11.60;99.90;;;;;;4989742;28;20057;-65
2022/01/01 09:12:06;;;;;;;;;;;11.60;99.90;;;;;;4976985;28;20108;-65
2022/01/01 09:14:32;;;;;;;35.20;12.87;;;11.60;99.90;;;;;;4988098;28;19929;-66
2022/01/01 09:16:57;;;;;;;27.53;11.97;;;11.60;99.90;;;;;;4988346;28;20042;-66
2022/01/01 09:19:23;;;;;;;27.10;11.47;;;11.60;99.90;;;;;;4986049;28;20503;-66
2022/01/01 09:21:49;;;;;;;26.23;12.40;;;11.70;99.90;;;;;;4985760;28;20466;-66
2022/01/01 09:24:14;;;;;;;30.23;11.63;;;11.70;99.90;;;;;;4993734;28;20514;-66
2022/01/01 09:26:40;;;;;;;36.90;12.33;;;11.70;99.90;;;;;;4984743;28;20069;-66
2022/01/01 09:29:06;;;;;;;32.03;12.37;;;11.70;99.90;;;;;;4985679;28;20034;-66
2022/01/01 09:31:32;;;;;;;;;;;11.70;99.90;;;;;;4988530;28;20109;-66
2022/01/01 09:33:58;;;;;;;29.00;11.98;;;11.70;99.90;;;;;;4967139;28;20079;-66
2022/01/01 09:36:24;;;;;;;23.77;11.63;;;11.70;99.90;;;;;;4989539;28;20380;-66
2022/01/01 09:38:50;;;;;;;36.10;12.65;;;11.70;99.90;;;;;;4987559;28;20046;-66
2022/01/01 09:41:15;;;;;;;32.70;12.50;;;11.80;99.90;;;;;;5029099;23;20041;-64
2022/01/01 09:43:42;;;;;;;25.17;11.83;;;11.80;99.90;;;;;;5039570;28;20033;-64
2022/01/01 09:46:12;;;;;;;26.42;11.95;;;11.80;99.90;;;;;;5031433;28;20085;-65
2022/01/01 09:48:38;;;;;;;35.67;10.93;;;11.80;99.90;;;;;;5041085;28;20120;-65
2022/01/01 09:51:04;;;;;;;22.67;11.00;;;11.80;99.90;;;;;;5016340;28;20126;-65
2022/01/01 09:53:31;;;;;;;28.33;10.35;;;11.80;99.90;;;;;;5027461;28;20505;-65
2022/01/01 09:55:58;;;;;;;29.88;10.45;;;11.80;99.90;;;;;;5043943;28;20068;-65
2022/01/01 09:58:26;;;;;;;24.23;10.02;;;11.80;99.90;;;;;;5041770;28;20037;-65
2022/01/01 10:00:52;;;;;;;28.17;10.75;;;11.80;99.90;;;;;;5044738;28;20033;-64
2022/01/01 10:03:37;;;;;;;;;;;11.80;99.90;;;;;;5039502;28;20068;-65
2022/01/01 10:06:06;;;;;;;26.58;9.70;;;11.80;99.90;;;;;;5039771;28;20011;-65
2022/01/01 10:08:33;;;;;;;29.67;9.70;;;11.80;99.90;;;;;;5038930;28;20041;-65
2022/01/01 10:10:58;;;;;;;;;;;11.80;99.90;;;;;;5046365;28;20033;-65
2022/01/01 10:13:28;;;;;;;26.02;9.55;;;11.80;99.90;;;;;;5044733;28;19927;-65
2022/01/01 10:15:55;;;;;;;23.17;9.07;;;11.70;99.90;;;;;;5029575;28;20071;-65
2022/01/01 10:18:29;;;;;;;23.70;10.02;;;11.80;99.90;;;;;;5023838;28;20127;-65
2022/01/01 10:21:00;;;;;;;19.17;8.73;;;11.80;99.90;;;;;;5045704;28;20115;-65
2022/01/01 10:23:29;;;;;;;27.75;8.95;;;11.80;99.90;;;;;;5047986;28;20063;-65
2022/01/01 10:29:26;;;;;;;29.40;10.10;;;11.80;99.90;;;;;;5040649;28;20545;-65
2022/01/01 10:31:59;;;;;;;29.35;8.32;;;11.90;99.90;;;;;;5047124;28;20498;-65
2022/01/01 10:34:43;;;;;;;22.38;8.20;;;11.90;99.90;;;;;;5045893;28;20086;-65
2022/01/01 10:37:11;;;;;;;18.65;8.63;;;11.90;99.90;;;;;;5046130;28;20041;-65
2022/01/01 10:39:48;;;;;;;24.80;8.30;;;11.90;99.90;;;;;;5032506;28;20658;-64
2022/01/01 10:42:14;;;;;;;;;;;11.90;99.90;;;;;;5028634;28;20099;-65
2022/01/01 10:44:40;;;;;;;19.52;8.40;;;11.90;99.90;;;;;;5045758;28;20296;-65
2022/01/01 10:47:12;;;;;;;17.65;8.23;;;12.00;99.90;;;;;;5048485;28;20036;-66
2022/01/01 10:52:13;;;;;;;19.55;7.95;;;12.00;99.90;;;;;;5048231;28;20291;-65
2022/01/01 10:55:00;;;;;;;20.88;8.20;;;12.00;99.90;;;;;;5049319;28;20261;-65
2022/01/01 10:57:41;;;;;;;22.95;7.90;;;12.00;99.90;;;;;;5024190;28;20049;-65
2022/01/01 11:00:09;;;;;;;24.77;8.15;;;12.10;99.90;;;;;;5044424;28;20132;-65
2022/01/01 11:02:37;;;;;;;16.52;7.22;;;12.10;99.90;;;;;;5045453;28;20440;-65
2022/01/01 11:05:03;;;;;;;20.63;8.65;;;12.10;99.90;;;;;;5044870;28;20367;-65
2022/01/01 11:07:29;;;;;;;;;;;12.10;99.90;;;;;;5042861;28;20478;-65
2022/01/01 11:09:59;;;;;;;17.27;8.00;;;12.10;99.90;;;;;;5045216;28;19917;-65
2022/01/01 11:12:27;;;;;;;18.33;7.43;;;12.10;99.90;;;;;;5031608;28;20064;-65
2022/01/01 11:14:54;;;;;;;19.52;7.68;;;12.20;99.90;;;;;;5030986;28;20094;-64
2022/01/01 11:17:21;;;;;;;22.40;7.78;;;12.10;99.90;;;;;;5029608;28;20033;-65
2022/01/01 11:19:47;;;;;;;23.80;8.05;;;12.20;99.90;;;;;;5037614;28;20111;-65
2022/01/01 11:22:13;;;;;;;18.38;7.32;;;12.20;99.90;;;;;;5029799;28;20526;-65
2022/01/01 11:24:40;;;;;;;18.70;7.75;;;12.20;99.90;;;;;;5040585;28;20124;-65
2022/01/01 11:27:07;;;;;;;16.95;6.68;;;12.20;99.90;;;;;;5043501;28;20041;-65
2022/01/01 11:29:34;;;;;;;17.98;6.90;;;12.20;99.90;;;;;;5028404;28;20037;-65
2022/01/01 11:32:01;;;;;;;17.80;6.15;;;12.30;99.90;;;;;;5031298;28;20063;-65
2022/01/01 11:34:30;;;;;;;14.65;6.43;;;12.30;99.90;;;;;;5045107;28;20029;-65
2022/01/01 11:36:56;;;;;;;17.83;6.00;;;12.40;99.90;;;;;;5038697;28;20128;-65
2022/01/01 11:39:25;;;;;;;15.02;6.20;;;12.30;99.90;;;;;;5046174;28;20029;-65
2022/01/01 11:41:51;;;;;;;16.38;6.40;;;12.40;99.90;;;;;;5048086;28;20049;-65
2022/01/01 11:44:28;;;;;;;15.30;6.05;;;12.30;99.90;;;;;;5046240;28;20060;-65
2022/01/01 11:47:19;;;;;;;12.55;6.15;;;12.40;99.90;;;;;;5040360;28;20090;-65
2022/01/01 11:49:46;;;;;;;10.27;5.55;;;12.40;99.90;;;;;;5033376;28;20124;-65
2022/01/01 11:52:12;;;;;;;16.35;5.90;;;12.40;99.90;;;;;;5050482;28;20052;-69
2022/01/01 11:54:40;;;;;;;13.07;5.15;;;12.40;99.90;;;;;;5032080;28;20055;-69
2022/01/01 11:57:27;;;;;;;17.33;6.15;;;12.40;99.90;;;;;;5043624;28;20722;-69
2022/01/01 12:00:01;;;;;;;11.20;5.65;;;12.40;99.90;;;;;;5046292;28;20033;-69
2022/01/01 12:02:26;;;;;;;11.35;4.90;;;12.40;99.90;;;;;;5040324;28;20044;-69
2022/01/01 12:04:54;;;;;;;14.73;5.80;;;12.40;99.90;;;;;;5044790;28;20041;-69
2022/01/01 12:07:19;;;;;;;13.10;5.05;;;12.40;99.90;;;;;;5039963;28;20049;-69
2022/01/01 12:10:06;;;;;;;12.27;4.60;;;12.40;99.90;;;;;;5029497;28;20045;-69
2022/01/01 12:12:39;;;;;;;12.98;5.18;;;12.40;99.90;;;;;;5030430;28;20052;-69
2022/01/01 12:15:09;;;;;;;13.25;6.13;;;12.40;99.90;;;;;;5042504;28;20116;-69
2022/01/01 12:17:48;;;;;;;11.88;4.80;;;12.40;99.90;;;;;;5024617;28;20126;-69
2022/01/01 12:20:17;;;;;;;16.02;4.25;;;12.50;99.90;;;;;;5016596;28;20049;-69
2022/01/01 12:22:44;;;;;;;11.80;5.05;;;12.50;99.90;;;;;;5040002;28;20040;-69
2022/01/01 12:25:17;;;;;;;10.70;4.28;;;12.40;99.90;;;;;;5045778;28;20052;-69
2022/01/01 12:27:47;;;;;;;17.15;4.75;;;12.50;99.90;;;;;;5043593;28;20044;-69
2022/01/01 12:30:14;;;;;;;9.73;4.88;;;12.50;99.90;;;;;;5046075;28;20041;-69
2022/01/01 12:32:45;;;;;;;17.98;5.20;;;12.50;99.90;;;;;;5045701;28;20401;-69
2022/01/01 12:35:37;;;;;;;9.35;4.85;;;12.60;99.90;;;;;;5045403;28;20028;-69
2022/01/01 12:38:07;;;;;;;13.57;4.60;;;12.50;99.90;;;;;;5038479;28;20040;-69
2022/01/01 12:40:32;;;;;;;13.88;4.38;;;12.60;99.90;;;;;;5020839;28;20041;-69
2022/01/01 12:43:08;;;;;;;10.47;4.70;;;12.60;99.90;;;;;;5046389;28;20413;-69
2022/01/01 12:45:35;;;;;;;11.98;5.22;;;12.60;99.90;;;;;;5042627;28;20041;-69
2022/01/01 12:48:02;;;;;;;8.20;4.55;;;12.60;99.90;;;;;;5039221;28;20518;-69